sensor_id;sensor_type;location;lat;lon;timestamp;pressure;altitude;pressure_sealevel;temperature;humidity
6853;BME280;3465;42.144;24.722;2023-08-21T00:02:15;148561.22;;;22.53;nan
6853;BME280;3465;42.144;24.722;2023-08-21T00:04:41;148585.25;;;22.63;nan
6853;BME280;3465;42.144;24.722;2023-08-21T00:07:06;148591.59;;;22.66;nan
6853;BME280;3465;42.144;24.722;2023-08-21T00:09:34;148585.25;;;22.63;nan
6853;BME280;3465;42.144;24.722;2023-08-21T00:11:59;148572.59;;;22.58;nan
6853;BME280;3465;42.144;24.722;2023-08-21T00:14:25;148552.31;;;22.50;nan
6853;BME280;3465;42.144;24.722;2023-08-21T00:16:50;148506.81;;;22.32;nan
6853;BME280;3465;42.144;24.722;2023-08-21T00:19:15;148491.59;;;22.26;nan
6853;BME280;3465;42.144;24.722;2023-08-21T00:21:41;148506.81;;;22.32;nan
6853;BME280;3465;42.144;24.722;2023-08-21T00:24:06;148509.34;;;22.33;nan
6853;BME280;3465;42.144;24.722;2023-08-21T00:26:32;148496.69;;;22.28;nan
6853;BME280;3465;42.144;24.722;2023-08-21T00:28:57;148502.97;;;22.30;nan
6853;BME280;3465;42.144;24.722;2023-08-21T00:31:23;148475.16;;;22.19;nan
6853;BME280;3465;42.144;24.722;2023-08-21T00:33:48;148465.09;;;22.15;nan
6853;BME280;3465;42.144;24.722;2023-08-21T00:36:13;148451.16;;;22.10;nan
6853;BME280;3465;42.144;24.722;2023-08-21T00:38:39;148447.38;;;22.08;nan
6853;BME280;3465;42.144;24.722;2023-08-21T00:41:05;148444.84;;;22.07;nan
6853;BME280;3465;42.144;24.722;2023-08-21T00:43:30;148432.19;;;22.02;nan
6853;BME280;3465;42.144;24.722;2023-08-21T00:45:56;148318.38;;;21.57;nan
6853;BME280;3465;42.144;24.722;2023-08-21T00:48:21;148357.56;;;21.73;nan
6853;BME280;3465;42.144;24.722;2023-08-21T00:50:47;148341.13;;;21.66;nan
6853;BME280;3465;42.144;24.722;2023-08-21T00:53:13;148370.25;;;21.78;nan
6853;BME280;3465;42.144;24.722;2023-08-21T00:55:38;148365.22;;;21.76;nan
6853;BME280;3465;42.144;24.722;2023-08-21T00:58:04;148377.81;;;21.81;nan
6853;BME280;3465;42.144;24.722;2023-08-21T01:00:30;148367.72;;;21.77;nan
6853;BME280;3465;42.144;24.722;2023-08-21T01:02:55;148333.53;;;21.63;nan
6853;BME280;3465;42.144;24.722;2023-08-21T01:05:22;148365.22;;;21.76;nan
6853;BME280;3465;42.144;24.722;2023-08-21T01:07:53;148360.09;;;21.74;nan
6853;BME280;3465;42.144;24.722;2023-08-21T01:10:30;148355.03;;;21.72;nan
6853;BME280;3465;42.144;24.722;2023-08-21T01:13:23;148324.72;;;21.60;nan
6853;BME280;3465;42.144;24.722;2023-08-21T01:15:55;148329.75;;;21.62;nan
6853;BME280;3465;42.144;24.722;2023-08-21T01:18:22;148284.28;;;21.44;nan
6853;BME280;3465;42.144;24.722;2023-08-21T01:20:49;148294.38;;;21.48;nan
6853;BME280;3465;42.144;24.722;2023-08-21T01:25:58;148294.38;;;21.48;nan
6853;BME280;3465;42.144;24.722;2023-08-21T01:28:23;148304.50;;;21.52;nan
6853;BME280;3465;42.144;24.722;2023-08-21T01:30:51;148290.59;;;21.46;nan
6853;BME280;3465;42.144;24.722;2023-08-21T01:33:19;148277.94;;;21.41;nan
6853;BME280;3465;42.144;24.722;2023-08-21T01:35:44;148301.94;;;21.51;nan
6853;BME280;3465;42.144;24.722;2023-08-21T01:38:10;148280.47;;;21.42;nan
6853;BME280;3465;42.144;24.722;2023-08-21T01:40:35;148271.66;;;21.39;nan
6853;BME280;3465;42.144;24.722;2023-08-21T01:43:01;148212.25;;;21.15;nan
6853;BME280;3465;42.144;24.722;2023-08-21T01:45:26;148259.00;;;21.34;nan
6853;BME280;3465;42.144;24.722;2023-08-21T01:47:52;148271.66;;;21.39;nan
6853;BME280;3465;42.144;24.722;2023-08-21T01:50:17;148259.00;;;21.34;nan
6853;BME280;3465;42.144;24.722;2023-08-21T01:52:43;148274.16;;;21.40;nan
6853;BME280;3465;42.144;24.722;2023-08-21T01:55:08;148265.31;;;21.36;nan
6853;BME280;3465;42.144;24.722;2023-08-21T01:57:34;148259.00;;;21.34;nan
6853;BME280;3465;42.144;24.722;2023-08-21T01:59:59;148222.38;;;21.19;nan
6853;BME280;3465;42.144;24.722;2023-08-21T02:02:24;148236.25;;;21.24;nan
6853;BME280;3465;42.144;24.722;2023-08-21T02:04:50;148232.44;;;21.23;nan
6853;BME280;3465;42.144;24.722;2023-08-21T02:07:15;148217.31;;;21.17;nan
6853;BME280;3465;42.144;24.722;2023-08-21T02:09:41;148198.38;;;21.09;nan
6853;BME280;3465;42.144;24.722;2023-08-21T02:12:06;148214.78;;;21.16;nan
6853;BME280;3465;42.144;24.722;2023-08-21T02:14:31;148193.31;;;21.07;nan
6853;BME280;3465;42.144;24.722;2023-08-21T02:16:57;148203.44;;;21.11;nan
6853;BME280;3465;42.144;24.722;2023-08-21T02:19:22;148216.03;;;21.16;nan
6853;BME280;3465;42.144;24.722;2023-08-21T02:21:48;148199.59;;;21.10;nan
6853;BME280;3465;42.144;24.722;2023-08-21T02:24:13;148211.00;;;21.14;nan
6853;BME280;3465;42.144;24.722;2023-08-21T02:26:39;148195.81;;;21.08;nan
6853;BME280;3465;42.144;24.722;2023-08-21T02:29:04;148204.66;;;21.12;nan
6853;BME280;3465;42.144;24.722;2023-08-21T02:31:29;148181.94;;;21.03;nan
6853;BME280;3465;42.144;24.722;2023-08-21T02:33:55;148180.66;;;21.02;nan
6853;BME280;3465;42.144;24.722;2023-08-21T02:36:20;148157.91;;;20.93;nan
6853;BME280;3465;42.144;24.722;2023-08-21T02:38:46;148185.72;;;21.04;nan
6853;BME280;3465;42.144;24.722;2023-08-21T02:41:11;148190.78;;;21.06;nan
6853;BME280;3465;42.144;24.722;2023-08-21T02:43:37;148183.22;;;21.03;nan
6853;BME280;3465;42.144;24.722;2023-08-21T02:46:02;148178.16;;;21.01;nan
6853;BME280;3465;42.144;24.722;2023-08-21T02:48:27;148179.38;;;21.02;nan
6853;BME280;3465;42.144;24.722;2023-08-21T02:50:53;148146.53;;;20.89;nan
6853;BME280;3465;42.144;24.722;2023-08-21T02:53:19;148156.63;;;20.93;nan
6853;BME280;3465;42.144;24.722;2023-08-21T02:55:44;148150.31;;;20.90;nan
6853;BME280;3465;42.144;24.722;2023-08-21T02:58:09;148131.34;;;20.83;nan
6853;BME280;3465;42.144;24.722;2023-08-21T03:00:35;148135.13;;;20.84;nan
6853;BME280;3465;42.144;24.722;2023-08-21T03:03:00;148137.69;;;20.85;nan
6853;BME280;3465;42.144;24.722;2023-08-21T03:05:26;148138.91;;;20.86;nan
6853;BME280;3465;42.144;24.722;2023-08-21T03:07:51;148150.31;;;20.90;nan
6853;BME280;3465;42.144;24.722;2023-08-21T03:10:17;148147.75;;;20.89;nan
6853;BME280;3465;42.144;24.722;2023-08-21T03:12:43;148102.34;;;20.71;nan
6853;BME280;3465;42.144;24.722;2023-08-21T03:15:08;148131.34;;;20.83;nan
6853;BME280;3465;42.144;24.722;2023-08-21T03:17:34;148093.50;;;20.68;nan
6853;BME280;3465;42.144;24.722;2023-08-21T03:19:59;148113.69;;;20.76;nan
6853;BME280;3465;42.144;24.722;2023-08-21T03:22:25;148109.91;;;20.74;nan
6853;BME280;3465;42.144;24.722;2023-08-21T03:24:50;148114.94;;;20.76;nan
6853;BME280;3465;42.144;24.722;2023-08-21T03:27:16;148103.56;;;20.72;nan
6853;BME280;3465;42.144;24.722;2023-08-21T03:29:44;148093.50;;;20.68;nan
6853;BME280;3465;42.144;24.722;2023-08-21T03:32:16;148094.72;;;20.68;nan
6853;BME280;3465;42.144;24.722;2023-08-21T03:34:42;148073.28;;;20.60;nan
6853;BME280;3465;42.144;24.722;2023-08-21T03:37:08;148064.44;;;20.56;nan
6853;BME280;3465;42.144;24.722;2023-08-21T03:39:33;148048.00;;;20.50;nan
6853;BME280;3465;42.144;24.722;2023-08-21T03:41:58;148064.44;;;20.56;nan
6853;BME280;3465;42.144;24.722;2023-08-21T03:44:24;148029.09;;;20.42;nan
6853;BME280;3465;42.144;24.722;2023-08-21T03:46:49;148053.06;;;20.52;nan
6853;BME280;3465;42.144;24.722;2023-08-21T03:49:15;148041.72;;;20.47;nan
6853;BME280;3465;42.144;24.722;2023-08-21T03:51:40;148044.22;;;20.48;nan
6853;BME280;3465;42.144;24.722;2023-08-21T03:54:06;148022.75;;;20.40;nan
6853;BME280;3465;42.144;24.722;2023-08-21T03:56:31;148039.16;;;20.46;nan
6853;BME280;3465;42.144;24.722;2023-08-21T03:58:56;148005.09;;;20.33;nan
6853;BME280;3465;42.144;24.722;2023-08-21T04:01:22;148030.31;;;20.43;nan
6853;BME280;3465;42.144;24.722;2023-08-21T04:03:47;148016.47;;;20.37;nan
6853;BME280;3465;42.144;24.722;2023-08-21T04:06:12;148034.09;;;20.44;nan
6853;BME280;3465;42.144;24.722;2023-08-21T04:08:38;148031.59;;;20.43;nan
6853;BME280;3465;42.144;24.722;2023-08-21T04:11:05;148018.97;;;20.38;nan
6853;BME280;3465;42.144;24.722;2023-08-21T04:13:30;148029.09;;;20.42;nan
6853;BME280;3465;42.144;24.722;2023-08-21T04:15:56;148051.81;;;20.51;nan
6853;BME280;3465;42.144;24.722;2023-08-21T04:18:22;148040.44;;;20.47;nan
6853;BME280;3465;42.144;24.722;2023-08-21T04:20:48;148079.56;;;20.62;nan
6853;BME280;3465;42.144;24.722;2023-08-21T04:23:13;148083.34;;;20.64;nan
6853;BME280;3465;42.144;24.722;2023-08-21T04:25:38;148094.72;;;20.68;nan
6853;BME280;3465;42.144;24.722;2023-08-21T04:28:04;148099.78;;;20.70;nan
6853;BME280;3465;42.144;24.722;2023-08-21T04:30:30;148127.56;;;20.81;nan
6853;BME280;3465;42.144;24.722;2023-08-21T04:32:55;148141.47;;;20.87;nan
6853;BME280;3465;42.144;24.722;2023-08-21T04:35:20;148152.84;;;20.91;nan
6853;BME280;3465;42.144;24.722;2023-08-21T04:37:47;148165.50;;;20.96;nan
6853;BME280;3465;42.144;24.722;2023-08-21T04:40:13;148169.31;;;20.98;nan
6853;BME280;3465;42.144;24.722;2023-08-21T04:42:38;148185.72;;;21.04;nan
6853;BME280;3465;42.144;24.722;2023-08-21T04:45:04;148204.66;;;21.12;nan
6853;BME280;3465;42.144;24.722;2023-08-21T04:47:31;148213.50;;;21.15;nan
6853;BME280;3465;42.144;24.722;2023-08-21T04:49:56;148232.44;;;21.23;nan
6853;BME280;3465;42.144;24.722;2023-08-21T04:52:23;148261.53;;;21.35;nan
6853;BME280;3465;42.144;24.722;2023-08-21T04:54:49;148283.03;;;21.43;nan
6853;BME280;3465;42.144;24.722;2023-08-21T04:57:15;148299.44;;;21.50;nan
6853;BME280;3465;42.144;24.722;2023-08-21T04:59:41;148324.72;;;21.60;nan
6853;BME280;3465;42.144;24.722;2023-08-21T05:02:07;148346.19;;;21.68;nan
6853;BME280;3465;42.144;24.722;2023-08-21T05:04:32;148339.88;;;21.66;nan
6853;BME280;3465;42.144;24.722;2023-08-21T05:06:58;148339.88;;;21.66;nan
6853;BME280;3465;42.144;24.722;2023-08-21T05:09:23;148400.59;;;21.90;nan
6853;BME280;3465;42.144;24.722;2023-08-21T05:11:49;148424.63;;;21.99;nan
6853;BME280;3465;42.144;24.722;2023-08-21T05:14:14;148443.56;;;22.07;nan
6853;BME280;3465;42.144;24.722;2023-08-21T05:16:40;148470.16;;;22.17;nan
6853;BME280;3465;42.144;24.722;2023-08-21T05:19:05;148504.25;;;22.31;nan
6853;BME280;3465;42.144;24.722;2023-08-21T05:21:30;148534.63;;;22.43;nan
6853;BME280;3465;42.144;24.722;2023-08-21T05:23:56;148599.19;;;22.69;nan
6853;BME280;3465;42.144;24.722;2023-08-21T05:26:21;148659.91;;;22.93;nan
6853;BME280;3465;42.144;24.722;2023-08-21T05:28:46;148739.59;;;23.24;nan
6853;BME280;3465;42.144;24.722;2023-08-21T05:31:12;148813.03;;;23.53;nan
6853;BME280;3465;42.144;24.722;2023-08-21T05:33:37;148849.75;;;23.68;nan
6853;BME280;3465;42.144;24.722;2023-08-21T05:36:04;149090.38;;;24.63;nan
6853;BME280;3465;42.144;24.722;2023-08-21T05:38:30;149316.03;;;25.53;nan
6853;BME280;3465;42.144;24.722;2023-08-21T05:40:56;149587.44;;;26.60;nan
6853;BME280;3465;42.144;24.722;2023-08-21T05:43:21;149881.94;;;27.76;nan
6853;BME280;3465;42.144;24.722;2023-08-21T05:45:46;150191.94;;;28.99;nan
6853;BME280;3465;42.144;24.722;2023-08-21T05:48:13;150447.53;;;30.00;nan
6853;BME280;3465;42.144;24.722;2023-08-21T05:50:38;150546.78;;;30.39;nan
6853;BME280;3465;42.144;24.722;2023-08-21T05:53:04;150647.31;;;30.79;nan
6853;BME280;3465;42.144;24.722;2023-08-21T05:55:29;150828.09;;;31.50;nan
6853;BME280;3465;42.144;24.722;2023-08-21T05:57:55;151053.56;;;32.39;nan
6853;BME280;3465;42.144;24.722;2023-08-21T06:00:20;151373.44;;;33.65;nan
6853;BME280;3465;42.144;24.722;2023-08-21T06:02:46;151674.47;;;34.83;nan
6853;BME280;3465;42.144;24.722;2023-08-21T06:05:11;151932.38;;;35.84;nan
6853;BME280;3465;42.144;24.722;2023-08-21T06:07:37;152154.59;;;36.72;nan
6853;BME280;3465;42.144;24.722;2023-08-21T06:10:02;152352.72;;;37.50;nan
6853;BME280;3465;42.144;24.722;2023-08-21T06:12:29;152490.78;;;38.04;nan
6853;BME280;3465;42.144;24.722;2023-08-21T06:14:55;152587.97;;;38.42;nan
6853;BME280;3465;42.144;24.722;2023-08-21T06:17:20;152737.66;;;39.01;nan
6853;BME280;3465;42.144;24.722;2023-08-21T06:19:46;152833.59;;;39.38;nan
6853;BME280;3465;42.144;24.722;2023-08-21T06:22:11;152921.88;;;39.73;nan
6853;BME280;3465;42.144;24.722;2023-08-21T06:24:36;152974.44;;;39.94;nan
6853;BME280;3465;42.144;24.722;2023-08-21T06:27:02;153049.91;;;40.23;nan
6853;BME280;3465;42.144;24.722;2023-08-21T06:29:27;153062.75;;;40.28;nan
6853;BME280;3465;42.144;24.722;2023-08-21T06:31:53;153094.75;;;40.41;nan
6853;BME280;3465;42.144;24.722;2023-08-21T06:34:18;153179.31;;;40.74;nan
6853;BME280;3465;42.144;24.722;2023-08-21T06:36:43;153280.50;;;41.13;nan
6853;BME280;3465;42.144;24.722;2023-08-21T06:39:09;153297.13;;;41.20;nan
6853;BME280;3465;42.144;24.722;2023-08-21T06:41:34;153400.94;;;41.61;nan
6853;BME280;3465;42.144;24.722;2023-08-21T06:44:00;153356.06;;;41.43;nan
6853;BME280;3465;42.144;24.722;2023-08-21T06:46:25;153531.63;;;42.12;nan
6853;BME280;3465;42.144;24.722;2023-08-21T06:48:51;153461.13;;;41.84;nan
6853;BME280;3465;42.144;24.722;2023-08-21T06:51:16;153581.63;;;42.31;nan
6853;BME280;3465;42.144;24.722;2023-08-21T06:53:42;153611.09;;;42.43;nan
6853;BME280;3465;42.144;24.722;2023-08-21T06:56:07;153667.50;;;42.65;nan
6853;BME280;3465;42.144;24.722;2023-08-21T06:58:33;153658.53;;;42.62;nan
6853;BME280;3465;42.144;24.722;2023-08-21T07:01:00;153722.66;;;42.87;nan
6853;BME280;3465;42.144;24.722;2023-08-21T07:03:25;153843.19;;;43.34;nan
6853;BME280;3465;42.144;24.722;2023-08-21T07:05:55;153958.66;;;43.79;nan
6853;BME280;3465;42.144;24.722;2023-08-21T07:08:25;153927.84;;;43.67;nan
6853;BME280;3465;42.144;24.722;2023-08-21T07:10:51;153912.47;;;43.61;nan
6853;BME280;3465;42.144;24.722;2023-08-21T07:13:17;153872.69;;;43.45;nan
6853;BME280;3465;42.144;24.722;2023-08-21T07:15:42;153908.63;;;43.59;nan
6853;BME280;3465;42.144;24.722;2023-08-21T07:18:07;153935.53;;;43.70;nan
6853;BME280;3465;42.144;24.722;2023-08-21T07:20:33;154007.44;;;43.98;nan
6853;BME280;3465;42.144;24.722;2023-08-21T07:22:59;154053.59;;;44.16;nan
6853;BME280;3465;42.144;24.722;2023-08-21T07:25:25;154067.69;;;44.22;nan
6853;BME280;3465;42.144;24.722;2023-08-21T07:27:56;154098.53;;;44.34;nan
6853;BME280;3465;42.144;24.722;2023-08-21T07:30:22;154202.47;;;44.74;nan
6853;BME280;3465;42.144;24.722;2023-08-21T07:32:48;154217.91;;;44.80;nan
6853;BME280;3465;42.144;24.722;2023-08-21T07:35:14;154330.84;;;45.25;nan
6853;BME280;3465;42.144;24.722;2023-08-21T07:37:39;154337.25;;;45.27;nan
6853;BME280;3465;42.144;24.722;2023-08-21T07:40:07;154369.38;;;45.40;nan
6853;BME280;3465;42.144;24.722;2023-08-21T07:42:33;154508.06;;;45.94;nan
6853;BME280;3465;42.144;24.722;2023-08-21T07:44:59;154455.41;;;45.73;nan
6853;BME280;3465;42.144;24.722;2023-08-21T07:47:26;154571.03;;;46.18;nan
6853;BME280;3465;42.144;24.722;2023-08-21T07:49:52;154635.22;;;46.44;nan
6853;BME280;3465;42.144;24.722;2023-08-21T07:52:17;154691.75;;;46.66;nan
6853;BME280;3465;42.144;24.722;2023-08-21T07:54:43;154763.75;;;46.94;nan
6853;BME280;3465;42.144;24.722;2023-08-21T07:57:08;154749.59;;;46.88;nan
6853;BME280;3465;42.144;24.722;2023-08-21T07:59:33;154756.06;;;46.91;nan
6853;BME280;3465;42.144;24.722;2023-08-21T08:01:59;154887.13;;;47.42;nan
6853;BME280;3465;42.144;24.722;2023-08-21T08:04:25;154956.53;;;47.69;nan
6853;BME280;3465;42.144;24.722;2023-08-21T08:06:51;154968.09;;;47.74;nan
6853;BME280;3465;42.144;24.722;2023-08-21T08:09:16;155090.19;;;48.21;nan
6853;BME280;3465;42.144;24.722;2023-08-21T08:11:41;155175.13;;;48.54;nan
6853;BME280;3465;42.144;24.722;2023-08-21T08:14:07;155175.13;;;48.54;nan
6853;BME280;3465;42.144;24.722;2023-08-21T08:16:32;155332.06;;;49.16;nan
6853;BME280;3465;42.144;24.722;2023-08-21T08:18:58;155374.44;;;49.32;nan
6853;BME280;3465;42.144;24.722;2023-08-21T08:21:24;155388.69;;;49.38;nan
6853;BME280;3465;42.144;24.722;2023-08-21T08:23:49;155440.09;;;49.58;nan
6853;BME280;3465;42.144;24.722;2023-08-21T08:26:14;155495.44;;;49.79;nan
6853;BME280;3465;42.144;24.722;2023-08-21T08:28:42;155468.41;;;49.69;nan
6853;BME280;3465;42.144;24.722;2023-08-21T08:31:14;155380.97;;;49.35;nan
6853;BME280;3465;42.144;24.722;2023-08-21T08:33:39;155321.75;;;49.12;nan
6853;BME280;3465;42.144;24.722;2023-08-21T08:36:05;155136.53;;;48.39;nan
6853;BME280;3465;42.144;24.722;2023-08-21T08:38:30;155305.03;;;49.05;nan
6853;BME280;3465;42.144;24.722;2023-08-21T08:40:56;155324.31;;;49.13;nan
6853;BME280;3465;42.144;24.722;2023-08-21T08:43:24;155305.03;;;49.05;nan
6853;BME280;3465;42.144;24.722;2023-08-21T08:45:50;155461.97;;;49.66;nan
6853;BME280;3465;42.144;24.722;2023-08-21T08:48:19;155325.59;;;49.13;nan
6853;BME280;3465;42.144;24.722;2023-08-21T08:50:45;155154.53;;;48.46;nan
6853;BME280;3465;42.144;24.722;2023-08-21T08:53:13;154619.81;;;46.38;nan
6853;BME280;3465;42.144;24.722;2023-08-21T08:55:39;154599.28;;;46.29;nan
6853;BME280;3465;42.144;24.722;2023-08-21T08:58:04;154947.53;;;47.66;nan
6853;BME280;3465;42.144;24.722;2023-08-21T09:00:30;155106.91;;;48.28;nan
6853;BME280;3465;42.144;24.722;2023-08-21T09:02:57;155072.25;;;48.14;nan
6853;BME280;3465;42.144;24.722;2023-08-21T09:05:23;154987.34;;;47.81;nan
6853;BME280;3465;42.144;24.722;2023-08-21T09:08:11;155178.97;;;48.56;nan
6853;BME280;3465;42.144;24.722;2023-08-21T09:10:38;155387.38;;;49.37;nan
6853;BME280;3465;42.144;24.722;2023-08-21T09:13:18;155518.59;;;49.88;nan
6853;BME280;3465;42.144;24.722;2023-08-21T09:15:46;155468.41;;;49.69;nan
6853;BME280;3465;42.144;24.722;2023-08-21T09:18:15;155541.78;;;49.97;nan
6853;BME280;3465;42.144;24.722;2023-08-21T09:20:41;155441.38;;;49.58;nan
6853;BME280;3465;42.144;24.722;2023-08-21T09:23:07;155418.25;;;49.49;nan
6853;BME280;3465;42.144;24.722;2023-08-21T09:25:39;155078.66;;;48.17;nan
6853;BME280;3465;42.144;24.722;2023-08-21T09:28:07;154858.88;;;47.31;nan
6853;BME280;3465;42.144;24.722;2023-08-21T09:30:52;154639.06;;;46.45;nan
6853;BME280;3465;42.144;24.722;2023-08-21T09:33:21;154890.97;;;47.43;nan
6853;BME280;3465;42.144;24.722;2023-08-21T09:35:48;155171.25;;;48.53;nan
6853;BME280;3465;42.144;24.722;2023-08-21T09:38:14;155173.81;;;48.54;nan
6853;BME280;3465;42.144;24.722;2023-08-21T09:40:41;155284.41;;;48.97;nan
6853;BME280;3465;42.144;24.722;2023-08-21T09:43:08;155400.22;;;49.42;nan
6853;BME280;3465;42.144;24.722;2023-08-21T09:45:35;155257.44;;;48.87;nan
6853;BME280;3465;42.144;24.722;2023-08-21T09:48:01;154645.47;;;46.48;nan
6853;BME280;3465;42.144;24.722;2023-08-21T09:50:29;154639.06;;;46.45;nan
6853;BME280;3465;42.144;24.722;2023-08-21T09:52:56;154754.75;;;46.90;nan
6853;BME280;3465;42.144;24.722;2023-08-21T09:55:22;154481.09;;;45.83;nan
6853;BME280;3465;42.144;24.722;2023-08-21T09:57:48;154043.31;;;44.12;nan
6853;BME280;3465;42.144;24.722;2023-08-21T10:00:22;154002.28;;;43.96;nan
6853;BME280;3465;42.144;24.722;2023-08-21T10:02:51;153843.19;;;43.34;nan
6853;BME280;3465;42.144;24.722;2023-08-21T10:05:17;153880.38;;;43.48;nan
6853;BME280;3465;42.144;24.722;2023-08-21T10:07:44;153425.28;;;41.70;nan
6853;BME280;3465;42.144;24.722;2023-08-21T10:10:12;153219.00;;;40.89;nan
6853;BME280;3465;42.144;24.722;2023-08-21T10:12:38;153250.97;;;41.02;nan
6853;BME280;3465;42.144;24.722;2023-08-21T10:15:05;153450.84;;;41.80;nan
6853;BME280;3465;42.144;24.722;2023-08-21T10:17:31;153753.44;;;42.99;nan
6853;BME280;3465;42.144;24.722;2023-08-21T10:20:05;153584.16;;;42.32;nan
6853;BME280;3465;42.144;24.722;2023-08-21T10:22:53;153399.66;;;41.60;nan
6853;BME280;3465;42.144;24.722;2023-08-21T10:25:23;153676.44;;;42.69;nan
6853;BME280;3465;42.144;24.722;2023-08-21T10:27:58;153853.44;;;43.38;nan
6853;BME280;3465;42.144;24.722;2023-08-21T10:30:26;153827.84;;;43.28;nan
6853;BME280;3465;42.144;24.722;2023-08-21T10:32:57;153618.78;;;42.46;nan
6853;BME280;3465;42.144;24.722;2023-08-21T10:35:27;153321.47;;;41.30;nan
6853;BME280;3465;42.144;24.722;2023-08-21T10:38:10;152814.41;;;39.31;nan
6853;BME280;3465;42.144;24.722;2023-08-21T10:40:38;152478.00;;;37.99;nan
6853;BME280;3465;42.144;24.722;2023-08-21T10:43:04;152175.09;;;36.80;nan
6853;BME280;3465;42.144;24.722;2023-08-21T10:45:30;152010.25;;;36.15;nan
6853;BME280;3465;42.144;24.722;2023-08-21T10:47:59;151909.38;;;35.75;nan
6853;BME280;3465;42.144;24.722;2023-08-21T10:50:25;151895.31;;;35.70;nan
6853;BME280;3465;42.144;24.722;2023-08-21T10:52:52;151920.84;;;35.80;nan
6853;BME280;3465;42.144;24.722;2023-08-21T10:55:18;151925.97;;;35.82;nan
6853;BME280;3465;42.144;24.722;2023-08-21T10:57:48;152177.63;;;36.81;nan
6853;BME280;3465;42.144;24.722;2023-08-21T11:00:18;152677.50;;;38.77;nan
6853;BME280;3465;42.144;24.722;2023-08-21T11:02:47;153030.72;;;40.16;nan
6853;BME280;3465;42.144;24.722;2023-08-21T11:05:13;153363.75;;;41.46;nan
6853;BME280;3465;42.144;24.722;2023-08-21T11:07:44;153376.56;;;41.51;nan
6853;BME280;3465;42.144;24.722;2023-08-21T11:10:14;153340.66;;;41.37;nan
6853;BME280;3465;42.144;24.722;2023-08-21T11:12:53;153231.78;;;40.94;nan
6853;BME280;3465;42.144;24.722;2023-08-21T11:15:21;152964.19;;;39.89;nan
6853;BME280;3465;42.144;24.722;2023-08-21T11:18:00;152979.53;;;39.96;nan
6853;BME280;3465;42.144;24.722;2023-08-21T11:20:30;153197.19;;;40.81;nan
6853;BME280;3465;42.144;24.722;2023-08-21T11:23:06;153279.19;;;41.13;nan
6853;BME280;3465;42.144;24.722;2023-08-21T11:25:33;153197.19;;;40.81;nan
6853;BME280;3465;42.144;24.722;2023-08-21T11:27:59;153092.22;;;40.40;nan
6853;BME280;3465;42.144;24.722;2023-08-21T11:30:26;153055.03;;;40.25;nan
6853;BME280;3465;42.144;24.722;2023-08-21T11:33:13;152984.66;;;39.98;nan
6853;BME280;3465;42.144;24.722;2023-08-21T11:35:39;152966.75;;;39.91;nan
6853;BME280;3465;42.144;24.722;2023-08-21T11:38:05;153028.19;;;40.15;nan
6853;BME280;3465;42.144;24.722;2023-08-21T11:40:34;153006.41;;;40.06;nan
6853;BME280;3465;42.144;24.722;2023-08-21T11:43:03;153120.34;;;40.51;nan
6853;BME280;3465;42.144;24.722;2023-08-21T11:45:32;152914.22;;;39.70;nan
6853;BME280;3465;42.144;24.722;2023-08-21T11:47:58;152641.72;;;38.63;nan
6853;BME280;3465;42.144;24.722;2023-08-21T11:50:23;152623.75;;;38.56;nan
6853;BME280;3465;42.144;24.722;2023-08-21T11:52:52;152521.47;;;38.16;nan
6853;BME280;3465;42.144;24.722;2023-08-21T11:55:18;152475.44;;;37.98;nan
6853;BME280;3465;42.144;24.722;2023-08-21T11:57:48;152439.63;;;37.84;nan
6853;BME280;3465;42.144;24.722;2023-08-21T12:00:14;152355.25;;;37.51;nan
6853;BME280;3465;42.144;24.722;2023-08-21T12:02:53;152343.78;;;37.46;nan
6853;BME280;3465;42.144;24.722;2023-08-21T12:05:18;152541.94;;;38.24;nan
6853;BME280;3465;42.144;24.722;2023-08-21T12:07:45;152658.34;;;38.70;nan
6853;BME280;3465;42.144;24.722;2023-08-21T12:10:10;152715.88;;;38.92;nan
6853;BME280;3465;42.144;24.722;2023-08-21T12:12:36;152534.28;;;38.21;nan
6853;BME280;3465;42.144;24.722;2023-08-21T12:15:01;152393.63;;;37.66;nan
6853;BME280;3465;42.144;24.722;2023-08-21T12:17:26;152224.91;;;36.99;nan
6853;BME280;3465;42.144;24.722;2023-08-21T12:19:52;152166.09;;;36.76;nan
6853;BME280;3465;42.144;24.722;2023-08-21T12:22:17;152145.66;;;36.68;nan
6853;BME280;3465;42.144;24.722;2023-08-21T12:24:43;152126.50;;;36.61;nan
6853;BME280;3465;42.144;24.722;2023-08-21T12:27:08;152097.13;;;36.49;nan
6853;BME280;3465;42.144;24.722;2023-08-21T12:29:34;152011.53;;;36.16;nan
6853;BME280;3465;42.144;24.722;2023-08-21T12:32:00;152020.50;;;36.19;nan
6853;BME280;3465;42.144;24.722;2023-08-21T12:34:25;152062.63;;;36.36;nan
6853;BME280;3465;42.144;24.722;2023-08-21T12:36:51;152067.75;;;36.38;nan
6853;BME280;3465;42.144;24.722;2023-08-21T12:39:17;152135.47;;;36.64;nan
6853;BME280;3465;42.144;24.722;2023-08-21T12:41:43;152201.88;;;36.90;nan
6853;BME280;3465;42.144;24.722;2023-08-21T12:44:09;152299.06;;;37.28;nan
6853;BME280;3465;42.144;24.722;2023-08-21T12:46:35;152268.31;;;37.16;nan
6853;BME280;3465;42.144;24.722;2023-08-21T12:49:01;152319.50;;;37.37;nan
6853;BME280;3465;42.144;24.722;2023-08-21T12:51:28;152297.75;;;37.28;nan
6853;BME280;3465;42.144;24.722;2023-08-21T12:53:54;152343.78;;;37.46;nan
6853;BME280;3465;42.144;24.722;2023-08-21T12:56:19;152355.25;;;37.51;nan
6853;BME280;3465;42.144;24.722;2023-08-21T12:58:48;152278.56;;;37.20;nan
6853;BME280;3465;42.144;24.722;2023-08-21T13:01:15;152304.13;;;37.30;nan
6853;BME280;3465;42.144;24.722;2023-08-21T13:03:46;152299.06;;;37.28;nan
6853;BME280;3465;42.144;24.722;2023-08-21T13:06:13;152162.25;;;36.75;nan
6853;BME280;3465;42.144;24.722;2023-08-21T13:08:39;152190.41;;;36.86;nan
6853;BME280;3465;42.144;24.722;2023-08-21T13:11:04;152121.41;;;36.59;nan
6853;BME280;3465;42.144;24.722;2023-08-21T13:13:31;152042.16;;;36.28;nan
6853;BME280;3465;42.144;24.722;2023-08-21T13:15:56;152000.06;;;36.11;nan
6853;BME280;3465;42.144;24.722;2023-08-21T13:18:22;152010.25;;;36.15;nan
6853;BME280;3465;42.144;24.722;2023-08-21T13:20:47;152035.78;;;36.25;nan
6853;BME280;3465;42.144;24.722;2023-08-21T13:23:13;152037.09;;;36.26;nan